Flight Track Log - Related Links

Times and Time Zones

All times are in EST time to prevent confusion due to time zone crossing. See the EEA2756 flight status page for this flight to view local times or setup timezone preferences in your user account.


Time Position Orientation Groundspeed Altitude Reporting Facility
EST Latitude Longitude Course Direction KTS MPH feet Rate Location/Type
Thu 04:43:00 AM 33.5061 114.0222 257° West  Level Estimated
Thu 04:44:00 AM 33.4777 113.9055 254° West  Level Estimated
Thu 04:45:00 AM 33.4493 113.7888 254° West  Level Estimated
Thu 04:46:00 AM 33.4207 113.6721 254° West  Level Estimated
Thu 04:47:00 AM 33.3920 113.5556 254° West  Level Estimated
Thu 04:48:00 AM 33.3633 113.4391 254° West  Level Estimated
Thu 04:49:00 AM 33.3344 113.3227 253° West  Level Estimated
Thu 04:50:00 AM 33.3054 113.2064 253° West  Level Estimated
Thu 04:51:00 AM 33.2763 113.0902 253° West  Level Estimated
Thu 04:52:00 AM 33.2471 112.9740 253° West  Level Estimated
Thu 04:53:00 AM 33.2177 112.8580 253° West  Level Estimated
Thu 04:54:00 AM 33.1883 112.7420 253° West  Level Estimated
Thu 04:55:00 AM 33.1588 112.6260 253° West  Level Estimated
Thu 04:56:00 AM 33.1291 112.5102 253° West  Level Estimated
Thu 04:57:00 AM 33.0994 112.3944 253° West  Level Estimated
Thu 04:58:00 AM 33.0695 112.2787 253° West  Level Estimated
Thu 04:59:00 AM 33.0395 112.1631 253° West  Level Estimated
Thu 05:00:00 AM 33.0095 112.0476 253° West  Level Estimated
Thu 05:01:00 AM 32.9793 111.9321 253° West  Level Estimated
Thu 05:02:00 AM 32.9490 111.8168 253° West  Level Estimated
Thu 05:03:00 AM 32.9186 111.7015 253° West  Level Estimated
Thu 05:04:00 AM 32.8881 111.5863 253° West  Level Estimated
Thu 05:05:00 AM 32.8575 111.4711 252° West  Level Estimated
Thu 05:06:00 AM 32.8268 111.3561 252° West  Level Estimated
Thu 05:07:00 AM 32.7960 111.2411 252° West  Level Estimated
Thu 05:08:00 AM 32.7651 111.1262 252° West  Level Estimated
Thu 05:09:00 AM 32.7341 111.0114 252° West  Level Estimated
Thu 05:10:00 AM 32.7029 110.8966 252° West  Level Estimated
Thu 05:11:00 AM 32.6717 110.7820 252° West  Level Estimated
Thu 05:12:00 AM 32.6404 110.6674 252° West  Level Estimated
Thu 05:13:00 AM 32.6089 110.5529 252° West  Level Estimated
Thu 05:14:00 AM 32.5774 110.4385 252° West  Level Estimated
Thu 05:15:00 AM 32.5457 110.3242 252° West  Level Estimated
Thu 05:16:00 AM 32.5140 110.2099 252° West  Level Estimated
Thu 05:17:00 AM 32.4821 110.0957 252° West  Level Estimated
Thu 05:18:00 AM 32.4502 109.9816 252° West  Level Estimated
Thu 05:19:00 AM 32.4181 109.8676 252° West  Level Estimated
Thu 05:20:00 AM 32.3859 109.7537 252° West  Level Estimated
Thu 05:21:00 AM 32.3537 109.6398 251° West  Level Estimated
Thu 05:22:00 AM 32.3213 109.5261 251° West  Level Estimated
Thu 05:23:00 AM 32.2888 109.4124 251° West  Level Estimated
Thu 05:24:00 AM 32.2563 109.2988 251° West  Level Estimated
Thu 05:25:00 AM 32.2236 109.1853 251° West  Level Estimated
Thu 05:26:00 AM 32.1908 109.0718 251° West  Level Estimated
Thu 05:27:00 AM 32.1580 108.9585 251° West  Level Estimated
Thu 05:28:00 AM 32.1250 108.8452 251° West  Level Estimated
Thu 05:29:00 AM 32.0919 108.7320 251° West  Level Estimated
Thu 05:30:00 AM 32.0587 108.6189 251° West  Level Estimated
Thu 05:31:00 AM 32.0255 108.5059 251° West  Level Estimated
Thu 05:32:00 AM 31.9921 108.3929 251° West  Level Estimated
Thu 05:33:00 AM 31.9586 108.2800 251° West  Level Estimated
Thu 05:34:00 AM 31.9250 108.1673 251° West  Level Estimated
Thu 05:35:00 AM 31.8913 108.0546 251° West  Level Estimated
Thu 05:36:00 AM 31.8575 107.9419 251° West  Level Estimated
Thu 05:37:00 AM 31.8237 107.8294 251° West  Level Estimated
Thu 05:38:00 AM 31.7897 107.7169 250° West  Level Estimated
Thu 05:39:00 AM 31.7556 107.6046 250° West  Level Estimated
Thu 05:40:00 AM 31.7215 107.4923 250° West  Level Estimated
Thu 05:41:00 AM 31.6872 107.3801 250° West  Level Estimated
Thu 05:42:00 AM 31.6528 107.2680 250° West  Level Estimated
Thu 05:43:00 AM 31.6184 107.1559 250° West  Level Estimated
Thu 05:44:00 AM 31.5838 107.0440 250° West  Level Estimated
Thu 05:45:00 AM 31.5491 106.9321 250° West  Level Estimated
Thu 05:46:00 AM 31.5144 106.8203 250° West  Level Estimated
Thu 05:47:00 AM 31.4795 106.7086 250° West  Level Estimated
Thu 05:48:00 AM 31.4446 106.5970 250° West  Level Estimated
Thu 05:49:00 AM 31.4095 106.4854 250° West  Level Estimated
Thu 05:50:00 AM 31.3744 106.3740 250° West  Level Estimated
Thu 05:51:00 AM 31.3391 106.2626 250° West  Level Estimated
Thu 05:52:00 AM 31.3038 106.1513 250° West  Level Estimated
Thu 05:53:00 AM 31.2684 106.0401 250° West  Level Estimated
Thu 05:54:00 AM 31.2328 105.9290 250° West  Level Estimated
Thu 05:55:00 AM 31.1972 105.8179 249° West  Level Estimated
Thu 05:56:00 AM 31.1615 105.7070 249° West  Level Estimated
Thu 05:57:00 AM 31.1257 105.5961 249° West  Level Estimated
Thu 05:58:00 AM 31.0898 105.4853 249° West  Level Estimated
Thu 05:59:00 AM 31.0538 105.3746 249° West  Level Estimated
Thu 06:00:00 AM 31.0177 105.2640 249° West  Level Estimated
Thu 06:01:00 AM 30.9815 105.1535 249° West  Level Estimated
Thu 06:02:00 AM 30.9452 105.0430 249° West  Level Estimated
Thu 06:03:00 AM 30.9088 104.9326 249° West  Level Estimated
Thu 06:04:00 AM 30.8723 104.8223 249° West  Level Estimated
Thu 06:05:00 AM 30.8358 104.7122 249° West  Level Estimated
Thu 06:06:00 AM 30.7991 104.6020 249° West  Level Estimated
Thu 06:07:00 AM 30.7623 104.4920 249° West  Level Estimated
Thu 06:08:00 AM 30.7255 104.3820 249° West  Level Estimated
Thu 06:09:00 AM 30.6885 104.2722 249° West  Level Estimated
Thu 06:10:00 AM 30.6515 104.1624 249° West  Level Estimated
Thu 06:11:00 AM 30.6144 104.0527 249° West  Level Estimated
Thu 06:12:00 AM 30.5785 103.9471 249° West  Level Estimated
Thu 06:13:00 AM 30.5785 103.9471 240° Southwest  Level Estimated
Thu 06:14:00 AM 30.5785 103.9471 240° Southwest  Level Estimated
Thu 06:15:00 AM 30.5785 103.9471 240° Southwest  Level Estimated
Thu 06:16:00 AM 30.5785 103.9471 240° Southwest  Level Estimated
Thu 06:17:00 AM 30.5785 103.9471 240° Southwest  Level Estimated
Thu 06:18:00 AM 30.5785 103.9471 240° Southwest  Level Estimated
Thu 06:19:00 AM 30.5785 103.9471 240° Southwest  Level Estimated
Thu 06:20:00 AM 30.5785 103.9471 240° Southwest  Level Estimated
Thu 06:21:00 AM 30.5785 103.9471 240° Southwest  Level Estimated
Thu 06:22:00 AM 30.5785 103.9471 240° Southwest  Level Estimated
Thu 06:23:00 AM 30.5785 103.9471 240° Southwest  Level Estimated
Thu 06:24:00 AM 30.5785 103.9471 240° Southwest  Level Estimated
Thu 06:25:00 AM 30.5785 103.9471 240° Southwest  Level Estimated
Thu 06:26:00 AM 30.5785 103.9471 240° Southwest  Level Estimated
Thu 06:27:00 AM 30.5785 103.9471 240° Southwest  Level Estimated
Thu 06:28:00 AM 30.5785 103.9471 240° Southwest  Level Estimated

Login

Don't have an account? Register now (free) for customized features, flight alerts, and more!